createdAt,value
2018-11-06T00:00:55.796Z,0
2018-11-06T00:02:08.009Z,0
2018-11-06T00:03:18.134Z,0
2018-11-06T00:04:28.298Z,0
2018-11-06T00:05:37.949Z,0
2018-11-06T00:06:47.869Z,0
2018-11-06T00:07:58.013Z,0
2018-11-06T00:09:10.077Z,0
2018-11-06T00:10:20.542Z,0
2018-11-06T00:11:30.697Z,0
2018-11-06T00:12:40.862Z,0
2018-11-06T00:13:50.790Z,0
2018-11-06T00:15:01.009Z,0
2018-11-06T00:16:10.949Z,0
2018-11-06T00:17:20.268Z,0
2018-11-06T00:18:30.203Z,0
2018-11-06T00:19:40.330Z,0
2018-11-06T00:20:50.434Z,0
2018-11-06T00:22:00.608Z,0
2018-11-06T00:23:10.732Z,0
2018-11-06T00:24:20.965Z,0
2018-11-06T00:25:30.908Z,0
2018-11-06T00:26:41.051Z,0
2018-11-06T00:27:50.825Z,0
2018-11-06T00:29:02.773Z,0
2018-11-06T00:30:13.124Z,0
2018-11-06T00:31:27.926Z,0
2018-11-06T00:32:38.644Z,0
2018-11-06T00:33:48.528Z,0
2018-11-06T00:34:58.666Z,0
2018-11-06T00:36:08.419Z,0
2018-11-06T00:37:18.295Z,0
2018-11-06T00:38:27.883Z,0
2018-11-06T00:39:38.050Z,0
2018-11-06T00:40:47.821Z,0
2018-11-06T00:41:57.954Z,0
2018-11-06T00:43:07.541Z,0
2018-11-06T00:44:16.864Z,0
2018-11-06T00:45:26.237Z,0
2018-11-06T00:46:36.280Z,0
2018-11-06T00:47:46.293Z,0
2018-11-06T00:48:56.387Z,0
2018-11-06T00:50:06.745Z,0
2018-11-06T00:51:16.905Z,0
2018-11-06T00:52:26.504Z,0
2018-11-06T00:53:36.721Z,0
2018-11-06T00:54:46.327Z,0
2018-11-06T00:55:56.456Z,0
2018-11-06T00:57:06.375Z,0
2018-11-06T00:58:16.591Z,0
2018-11-06T00:59:26.782Z,0
2018-11-06T01:00:36.980Z,0
2018-11-06T01:01:47.080Z,0
2018-11-06T01:02:57.412Z,0
2018-11-06T01:04:08.449Z,0
2018-11-06T01:05:18.067Z,0
2018-11-06T01:06:28.253Z,0
2018-11-06T01:07:38.726Z,0
2018-11-06T01:08:48.697Z,0
2018-11-06T01:09:59.460Z,0
2018-11-06T01:11:09.564Z,0
2018-11-06T01:12:19.417Z,0
2018-11-06T01:13:28.970Z,0
2018-11-06T01:14:38.774Z,0
2018-11-06T01:15:48.830Z,0
2018-11-06T01:16:58.638Z,0
2018-11-06T01:18:08.999Z,0
2018-11-06T01:19:19.177Z,0
2018-11-06T01:20:29.322Z,0
2018-11-06T01:21:39.155Z,0
2018-11-06T01:22:48.772Z,0
2018-11-06T01:23:58.651Z,0
2018-11-06T01:25:08.593Z,0
2018-11-06T01:26:18.653Z,0
2018-11-06T01:27:28.723Z,0
2018-11-06T01:28:38.852Z,0
2018-11-06T01:29:48.504Z,0
2018-11-06T01:30:58.317Z,0
2018-11-06T01:32:08.142Z,0
2018-11-06T01:33:17.689Z,0
2018-11-06T01:34:27.784Z,0
2018-11-06T01:35:37.842Z,0
2018-11-06T01:36:47.958Z,0
2018-11-06T01:37:58.097Z,0
2018-11-06T01:39:07.897Z,0
2018-11-06T01:40:17.974Z,0
2018-11-06T01:41:27.796Z,0
2018-11-06T01:42:37.893Z,0
2018-11-06T01:43:47.236Z,0
2018-11-06T01:44:57.310Z,0
2018-11-06T01:46:07.140Z,0
2018-11-06T01:47:17.213Z,0
2018-11-06T01:48:26.805Z,0
2018-11-06T01:49:36.341Z,0
2018-11-06T01:50:45.879Z,0
2018-11-06T01:51:55.963Z,0
2018-11-06T01:53:06.417Z,0
2018-11-06T01:54:16.216Z,0
2018-11-06T01:55:26.371Z,0
2018-11-06T01:56:36.206Z,0
2018-11-06T01:57:46.030Z,0
2018-11-06T01:58:56.097Z,0
2018-11-06T02:00:06.231Z,0
2018-11-06T02:01:16.033Z,0
2018-11-06T02:02:25.570Z,0
2018-11-06T02:03:35.649Z,0
2018-11-06T02:04:45.449Z,0
2018-11-06T02:05:55.290Z,0
2018-11-06T02:07:07.076Z,0
2018-11-06T02:08:17.152Z,0
2018-11-06T02:09:26.962Z,0
2018-11-06T02:10:37.059Z,0
2018-11-06T02:11:46.860Z,0
2018-11-06T02:12:56.467Z,0
2018-11-06T02:14:06.530Z,0
2018-11-06T02:15:16.327Z,0
2018-11-06T02:16:26.252Z,0
2018-11-06T02:17:35.851Z,0
2018-11-06T02:18:45.987Z,0
2018-11-06T02:19:56.051Z,0
2018-11-06T02:21:06.126Z,0
2018-11-06T02:22:15.939Z,0
2018-11-06T02:23:25.999Z,0
2018-11-06T02:24:36.113Z,0
2018-11-06T02:25:46.234Z,0
2018-11-06T02:26:55.863Z,0
2018-11-06T02:28:05.675Z,0
2018-11-06T02:29:15.737Z,0
2018-11-06T02:30:25.556Z,0
2018-11-06T02:31:35.558Z,0
2018-11-06T02:32:45.825Z,0
2018-11-06T02:33:55.910Z,0
2018-11-06T02:35:05.985Z,0
2018-11-06T02:36:15.999Z,0
2018-11-06T02:37:26.115Z,0
2018-11-06T02:38:36.013Z,0
2018-11-06T02:39:45.821Z,0
2018-11-06T02:40:55.643Z,0
2018-11-06T02:42:05.207Z,0
2018-11-06T02:43:15.290Z,0
2018-11-06T02:44:25.104Z,0
2018-11-06T02:45:34.981Z,0
2018-11-06T02:46:44.897Z,0
2018-11-06T02:47:54.800Z,0
2018-11-06T02:49:05.699Z,0
2018-11-06T02:50:15.539Z,0
2018-11-06T02:51:25.622Z,0
2018-11-06T02:52:35.943Z,0
2018-11-06T02:53:46.138Z,0
2018-11-06T02:54:55.718Z,0
2018-11-06T02:56:06.073Z,0
2018-11-06T02:57:16.242Z,0
2018-11-06T02:58:26.151Z,0
2018-11-06T02:59:36.215Z,0
2018-11-06T03:00:46.292Z,0
2018-11-06T03:01:56.135Z,0
2018-11-06T03:34:32.500Z,0
2018-11-06T03:35:42.299Z,0
2018-11-06T03:36:52.165Z,0
2018-11-06T03:38:02.930Z,0
2018-11-06T03:39:12.509Z,0
2018-11-06T03:40:22.569Z,0
2018-11-06T03:41:32.638Z,0
2018-11-06T03:42:42.434Z,0
2018-11-06T03:43:52.269Z,0
2018-11-06T03:45:02.343Z,0
2018-11-06T03:46:12.418Z,0
2018-11-06T03:47:22.226Z,0
2018-11-06T03:48:32.288Z,0
2018-11-06T03:49:42.111Z,0
2018-11-06T03:50:52.215Z,0
2018-11-06T03:52:02.340Z,0
2018-11-06T03:53:12.171Z,0
2018-11-06T03:54:21.983Z,0
2018-11-06T03:55:32.105Z,0
2018-11-06T03:56:42.168Z,0
2018-11-06T03:57:52.300Z,0
2018-11-06T03:59:02.122Z,0
2018-11-06T04:00:13.273Z,0
2018-11-06T04:01:23.160Z,0
2018-11-06T04:02:33.262Z,0
2018-11-06T04:03:43.104Z,0
2018-11-06T04:04:52.908Z,0
2018-11-06T04:06:03.005Z,0
2018-11-06T04:07:12.860Z,0
2018-11-06T04:08:22.664Z,0
2018-11-06T04:09:32.741Z,0
2018-11-06T04:10:42.552Z,0
2018-11-06T04:11:52.633Z,0
2018-11-06T04:13:02.767Z,0
2018-11-06T04:14:12.896Z,0
2018-11-06T04:15:22.269Z,0
2018-11-06T04:16:32.126Z,0
2018-11-06T04:17:41.952Z,0
2018-11-06T04:18:51.757Z,0
2018-11-06T04:20:01.304Z,0
2018-11-06T04:21:11.346Z,0
2018-11-06T04:22:21.417Z,0
2018-11-06T04:23:31.506Z,0
2018-11-06T04:24:41.596Z,0
2018-11-06T04:25:51.429Z,0
2018-11-06T04:27:01.339Z,0
2018-11-06T04:28:11.449Z,0
2018-11-06T04:29:21.526Z,0
2018-11-06T04:30:31.325Z,0
2018-11-06T04:31:41.148Z,0
2018-11-06T04:32:51.049Z,0
2018-11-06T04:34:01.367Z,0
2018-11-06T04:35:11.191Z,0
2018-11-06T04:36:21.278Z,0
2018-11-06T04:37:31.369Z,0
2018-11-06T04:38:41.234Z,0
2018-11-06T04:39:51.297Z,0
2018-11-06T04:41:01.581Z,0
2018-11-06T04:42:11.397Z,0
2018-11-06T04:43:21.230Z,0
2018-11-06T04:44:31.092Z,0
2018-11-06T04:45:40.898Z,0
2018-11-06T04:46:50.965Z,0
2018-11-06T04:48:01.672Z,0
2018-11-06T04:49:11.747Z,0
2018-11-06T04:50:24.597Z,0
2018-11-06T04:51:34.944Z,0
2018-11-06T04:52:45.025Z,0
2018-11-06T04:53:54.841Z,0
2018-11-06T04:55:04.685Z,0
2018-11-06T04:56:14.759Z,0
2018-11-06T04:57:24.570Z,0
2018-11-06T04:58:34.646Z,0
2018-11-06T04:59:44.204Z,0
2018-11-06T05:00:54.027Z,0
2018-11-06T05:02:04.125Z,0
2018-11-06T05:03:14.275Z,0
2018-11-06T05:04:24.121Z,0
2018-11-06T05:05:34.182Z,0
2018-11-06T05:06:43.829Z,0
2018-11-06T05:07:53.343Z,0
2018-11-06T05:09:03.430Z,0
2018-11-06T05:10:13.356Z,0
2018-11-06T05:11:22.901Z,0
2018-11-06T05:12:32.952Z,0
2018-11-06T05:13:42.822Z,0
2018-11-06T05:14:52.113Z,0
2018-11-06T05:16:01.923Z,0
2018-11-06T05:17:11.788Z,0
2018-11-06T05:18:21.873Z,0
2018-11-06T05:19:31.972Z,0
2018-11-06T05:20:42.041Z,0
2018-11-06T05:21:51.844Z,0
2018-11-06T05:23:01.914Z,0
2018-11-06T05:24:11.994Z,0
2018-11-06T05:25:22.362Z,0
2018-11-06T05:26:31.978Z,0
2018-11-06T05:27:42.343Z,0
2018-11-06T05:28:52.165Z,0
2018-11-06T05:30:02.256Z,0
2018-11-06T05:31:12.394Z,0
2018-11-06T05:32:22.471Z,0
2018-11-06T05:33:32.008Z,0
2018-11-06T05:34:42.280Z,0
2018-11-06T05:35:52.090Z,0
2018-11-06T05:37:02.157Z,0
2018-11-06T05:38:12.827Z,0
2018-11-06T05:39:23.322Z,0
2018-11-06T05:40:33.417Z,0
2018-11-06T05:41:42.987Z,0
2018-11-06T05:42:52.790Z,0
2018-11-06T05:44:03.721Z,0
2018-11-06T05:45:13.600Z,0
2018-11-06T05:46:23.662Z,0
2018-11-06T05:47:33.471Z,5
2018-11-06T05:48:43.607Z,5
2018-11-06T05:49:53.668Z,5
2018-11-06T05:51:04.902Z,5
2018-11-06T05:52:14.700Z,5
2018-11-06T05:53:25.092Z,5
2018-11-06T05:54:35.160Z,5
2018-11-06T05:55:45.475Z,10
2018-11-06T05:56:55.288Z,10
2018-11-06T05:58:04.824Z,10
2018-11-06T05:59:14.747Z,10
2018-11-06T06:00:24.492Z,10
2018-11-06T06:01:34.589Z,10
2018-11-06T06:02:44.686Z,15
2018-11-06T06:03:55.019Z,15
2018-11-06T06:05:05.160Z,15
2018-11-06T06:06:15.022Z,15
2018-11-06T06:07:25.108Z,15
2018-11-06T06:08:35.164Z,20
2018-11-06T06:09:44.741Z,20
2018-11-06T06:10:54.628Z,20
2018-11-06T06:12:04.804Z,20
2018-11-06T06:13:14.886Z,20
2018-11-06T06:14:24.969Z,20
2018-11-06T06:15:35.067Z,25
2018-11-06T06:16:45.720Z,25
2018-11-06T06:17:55.334Z,25
2018-11-06T06:19:05.443Z,25
2018-11-06T06:20:15.002Z,25
2018-11-06T06:21:25.092Z,30
2018-11-06T06:22:35.581Z,30
2018-11-06T06:23:45.837Z,30
2018-11-06T06:24:55.649Z,30
2018-11-06T06:26:05.724Z,30
2018-11-06T06:27:15.807Z,35
2018-11-06T06:28:26.160Z,35
2018-11-06T06:29:35.384Z,35
2018-11-06T06:30:45.217Z,35
2018-11-06T06:31:55.306Z,35
2018-11-06T06:33:05.150Z,35
2018-11-06T06:34:15.215Z,35
2018-11-06T06:35:25.333Z,40
2018-11-06T06:36:35.460Z,40
2018-11-06T06:37:45.530Z,40
2018-11-06T06:38:56.133Z,35
2018-11-06T06:40:06.615Z,40
2018-11-06T06:41:17.253Z,40
2018-11-06T06:42:27.063Z,40
2018-11-06T06:43:37.122Z,35
2018-11-06T06:44:46.663Z,45
2018-11-06T06:45:56.222Z,40
2018-11-06T06:47:05.645Z,40
2018-11-06T06:48:15.767Z,40
2018-11-06T06:49:25.572Z,40
2018-11-06T06:50:35.496Z,40
2018-11-06T06:51:45.560Z,40
2018-11-06T06:52:55.366Z,40
2018-11-06T06:54:06.086Z,40
2018-11-06T06:55:17.337Z,40
2018-11-06T06:56:27.401Z,40
2018-11-06T06:57:36.947Z,45
2018-11-06T06:58:47.102Z,45
2018-11-06T06:59:56.931Z,40
2018-11-06T07:01:06.826Z,40
2018-11-06T07:02:16.666Z,45
2018-11-06T07:03:26.825Z,50
2018-11-06T07:04:36.658Z,45
2018-11-06T07:05:46.469Z,50
2018-11-06T07:06:56.373Z,50
2018-11-06T07:08:06.199Z,55
2018-11-06T07:09:16.278Z,55
2018-11-06T07:10:26.386Z,75
2018-11-06T07:11:35.938Z,70
2018-11-06T07:12:46.281Z,60
2018-11-06T07:13:56.090Z,80
2018-11-06T07:15:05.902Z,75
2018-11-06T07:16:15.719Z,75
2018-11-06T07:17:25.799Z,85
2018-11-06T07:18:35.314Z,75
2018-11-06T07:19:45.130Z,75
2018-11-06T07:20:55.211Z,75
2018-11-06T07:22:05.174Z,85
2018-11-06T07:23:15.298Z,90
2018-11-06T07:24:25.387Z,80
2018-11-06T07:25:35.474Z,85
2018-11-06T07:26:45.320Z,80
2018-11-06T07:27:55.122Z,90
2018-11-06T07:29:07.729Z,80
2018-11-06T07:30:17.797Z,75
2018-11-06T07:31:27.876Z,75
2018-11-06T07:32:37.417Z,85
2018-11-06T07:33:46.961Z,85
2018-11-06T07:34:58.407Z,80
2018-11-06T07:36:09.581Z,95
2018-11-06T07:37:19.717Z,90
2018-11-06T07:38:29.545Z,90
2018-11-06T07:39:39.631Z,95
2018-11-06T07:40:50.095Z,105
2018-11-06T07:41:59.935Z,95
2018-11-06T07:43:10.034Z,85
2018-11-06T07:44:19.847Z,105
2018-11-06T07:45:30.162Z,100
2018-11-06T07:46:40.179Z,100
2018-11-06T07:47:50.376Z,105
2018-11-06T07:49:00.343Z,105
2018-11-06T07:50:10.694Z,105
2018-11-06T07:51:20.548Z,105
2018-11-06T07:52:30.613Z,105
2018-11-06T07:53:40.280Z,105
2018-11-06T07:54:50.382Z,110
2018-11-06T07:56:00.982Z,110
2018-11-06T07:57:11.103Z,110
2018-11-06T07:58:20.926Z,115
2018-11-06T07:59:30.795Z,110
2018-11-06T08:00:40.974Z,115
2018-11-06T08:01:50.786Z,115
2018-11-06T08:03:00.615Z,115
2018-11-06T08:04:10.951Z,115
2018-11-06T08:05:21.391Z,120
2018-11-06T08:06:32.066Z,120
2018-11-06T08:07:41.654Z,120
2018-11-06T08:08:51.771Z,115
2018-11-06T08:10:03.530Z,120
2018-11-06T08:11:13.716Z,120
2018-11-06T08:12:23.812Z,120
2018-11-06T08:13:33.628Z,120
2018-11-06T08:14:44.487Z,125
2018-11-06T08:15:54.666Z,125
2018-11-06T08:17:06.017Z,125
2018-11-06T08:18:16.032Z,125
2018-11-06T08:19:26.135Z,125
2018-11-06T08:20:36.155Z,130
2018-11-06T08:21:46.331Z,130
2018-11-06T08:22:55.887Z,130
2018-11-06T08:24:07.490Z,130
2018-11-06T08:25:17.971Z,130
2018-11-06T08:26:27.516Z,130
2018-11-06T08:27:37.579Z,130
2018-11-06T08:28:47.420Z,140
2018-11-06T08:29:57.548Z,130
2018-11-06T08:31:09.551Z,135
2018-11-06T08:32:20.770Z,135
2018-11-06T08:33:31.168Z,140
2018-11-06T08:34:41.274Z,135
2018-11-06T08:35:51.353Z,135
2018-11-06T08:37:01.938Z,135
2018-11-06T08:38:12.357Z,135
2018-11-06T08:39:22.186Z,135
2018-11-06T08:40:32.273Z,135
2018-11-06T08:41:42.371Z,135
2018-11-06T08:42:52.173Z,140
2018-11-06T08:44:02.287Z,140
2018-11-06T08:45:12.110Z,140
2018-11-06T08:46:22.261Z,140
2018-11-06T08:47:31.913Z,140
2018-11-06T08:48:41.962Z,140
2018-11-06T08:49:52.033Z,140
2018-11-06T08:51:01.526Z,140
2018-11-06T08:52:11.620Z,140
2018-11-06T08:53:21.446Z,140
2018-11-06T08:54:31.522Z,145
2018-11-06T08:55:41.341Z,150
2018-11-06T08:56:51.436Z,135
2018-11-06T08:58:03.211Z,150
2018-11-06T08:59:13.392Z,145
2018-11-06T09:00:23.255Z,145
2018-11-06T09:01:33.115Z,145
2018-11-06T09:02:43.145Z,150
2018-11-06T09:03:53.045Z,150
2018-11-06T09:05:03.560Z,150
2018-11-06T09:06:13.187Z,150
2018-11-06T09:07:22.846Z,150
2018-11-06T09:08:32.927Z,150
2018-11-06T09:09:43.058Z,155
2018-11-06T09:10:53.143Z,150
2018-11-06T09:12:05.332Z,155
2018-11-06T09:13:15.208Z,155
2018-11-06T09:14:25.299Z,150
2018-11-06T09:15:35.389Z,150
2018-11-06T09:16:45.297Z,155
2018-11-06T09:17:55.180Z,150
2018-11-06T09:19:05.905Z,155
2018-11-06T09:20:15.477Z,155
2018-11-06T09:21:25.025Z,155
2018-11-06T09:22:35.011Z,155
2018-11-06T09:23:45.096Z,150
2018-11-06T09:24:54.652Z,155
2018-11-06T09:26:04.746Z,155
2018-11-06T09:27:14.843Z,155
2018-11-06T09:28:24.934Z,155
2018-11-06T09:29:34.764Z,155
2018-11-06T09:30:45.015Z,155
2018-11-06T09:31:55.125Z,155
2018-11-06T09:33:05.234Z,155
2018-11-06T09:34:15.053Z,155
2018-11-06T09:35:25.174Z,155
2018-11-06T09:36:35.251Z,160
2018-11-06T09:37:45.306Z,160
2018-11-06T09:38:55.379Z,160
2018-11-06T09:40:06.031Z,160
2018-11-06T09:41:16.412Z,160
2018-11-06T09:42:26.312Z,160
2018-11-06T09:43:36.397Z,160
2018-11-06T09:44:46.243Z,160
2018-11-06T09:45:56.320Z,160
2018-11-06T09:47:05.861Z,160
2018-11-06T09:48:15.689Z,160
2018-11-06T09:49:25.258Z,160
2018-11-06T09:50:35.396Z,160
2018-11-06T09:51:45.512Z,160
2018-11-06T09:52:55.288Z,160
2018-11-06T09:54:07.210Z,160
2018-11-06T09:55:17.044Z,160
2018-11-06T09:56:26.926Z,160
2018-11-06T09:57:36.732Z,160
2018-11-06T09:58:46.814Z,160
2018-11-06T09:59:56.893Z,160
2018-11-06T10:01:06.734Z,160
2018-11-06T10:02:16.899Z,160
2018-11-06T10:03:26.994Z,160
2018-11-06T10:04:36.813Z,160
2018-11-06T10:05:47.048Z,160
2018-11-06T10:06:58.492Z,160
2018-11-06T10:08:08.870Z,160
2018-11-06T10:09:18.910Z,160
2018-11-06T10:10:28.487Z,160
2018-11-06T10:11:38.859Z,160
2018-11-06T10:12:48.943Z,160
2018-11-06T10:13:59.067Z,160
2018-11-06T10:15:09.165Z,160
2018-11-06T10:16:19.267Z,160
2018-11-06T10:17:29.381Z,165
2018-11-06T10:18:39.092Z,160
2018-11-06T10:19:49.166Z,160
2018-11-06T10:20:59.263Z,165
2018-11-06T10:22:09.362Z,165
2018-11-06T10:23:19.462Z,160
2018-11-06T10:24:29.556Z,165
2018-11-06T10:25:39.363Z,165
2018-11-06T10:26:49.375Z,165
2018-11-06T10:27:59.458Z,165
2018-11-06T10:29:12.367Z,165
2018-11-06T10:30:22.197Z,165
2018-11-06T10:31:32.018Z,165
2018-11-06T10:32:42.568Z,170
2018-11-06T10:33:52.106Z,170
2018-11-06T10:35:02.194Z,165
2018-11-06T10:36:12.014Z,165
2018-11-06T10:37:21.593Z,165
2018-11-06T10:38:31.925Z,165
2018-11-06T10:39:42.768Z,165
2018-11-06T10:40:53.890Z,170
2018-11-06T10:42:04.524Z,170
2018-11-06T10:43:15.635Z,165
2018-11-06T10:44:27.249Z,170
2018-11-06T10:45:37.556Z,165
2018-11-06T10:46:48.440Z,165
2018-11-06T10:47:59.329Z,170
2018-11-06T10:49:11.623Z,170
2018-11-06T10:50:21.995Z,170
2018-11-06T10:51:32.619Z,170
2018-11-06T10:52:42.958Z,170
2018-11-06T10:53:54.026Z,170
2018-11-06T10:55:04.000Z,170
2018-11-06T10:56:14.809Z,170
2018-11-06T10:57:25.419Z,175
2018-11-06T10:58:36.333Z,175
2018-11-06T10:59:46.662Z,170
2018-11-06T11:00:57.341Z,165
2018-11-06T11:02:07.581Z,170
2018-11-06T11:03:17.479Z,170
2018-11-06T11:04:29.011Z,170
2018-11-06T11:05:39.380Z,170
2018-11-06T11:06:50.707Z,170
2018-11-06T11:08:03.487Z,165
2018-11-06T11:09:14.682Z,170
2018-11-06T11:10:26.045Z,170
2018-11-06T11:11:36.848Z,170
2018-11-06T11:12:48.541Z,170
2018-11-06T11:13:59.367Z,175
2018-11-06T11:15:10.522Z,170
2018-11-06T11:16:22.207Z,170
2018-11-06T11:17:32.997Z,170
2018-11-06T11:18:43.109Z,170
2018-11-06T11:19:53.403Z,170
2018-11-06T11:21:03.260Z,170
2018-11-06T11:22:13.880Z,170
2018-11-06T11:23:24.618Z,170
2018-11-06T11:24:34.758Z,170
2018-11-06T11:25:45.366Z,170
2018-11-06T11:26:55.775Z,170
2018-11-06T11:28:05.983Z,170
2018-11-06T11:29:16.360Z,175
2018-11-06T11:30:26.458Z,170
2018-11-06T11:31:36.353Z,170
2018-11-06T11:32:46.509Z,170
2018-11-06T11:33:56.762Z,170
2018-11-06T11:35:06.585Z,170
2018-11-06T11:36:16.467Z,170
2018-11-06T11:37:26.429Z,170
2018-11-06T11:38:36.232Z,170
2018-11-06T11:39:45.846Z,170
2018-11-06T11:40:55.155Z,165
2018-11-06T11:42:07.328Z,170
2018-11-06T11:43:17.424Z,170
2018-11-06T11:44:27.532Z,165
2018-11-06T11:45:38.129Z,165
2018-11-06T11:46:47.940Z,165
2018-11-06T11:47:58.748Z,165
2018-11-06T11:49:08.633Z,170
2018-11-06T11:50:18.705Z,170
2018-11-06T11:51:28.537Z,170
2018-11-06T11:52:38.645Z,165
2018-11-06T11:53:48.793Z,165
2018-11-06T11:54:58.882Z,165
2018-11-06T11:56:08.179Z,165
2018-11-06T11:57:18.015Z,165
2018-11-06T11:58:28.089Z,165
2018-11-06T11:59:37.962Z,170
2018-11-06T12:00:48.076Z,165
2018-11-06T12:01:58.185Z,165
2018-11-06T12:03:08.503Z,165
2018-11-06T12:04:18.674Z,170
2018-11-06T12:05:28.540Z,170
2018-11-06T12:06:38.633Z,170
2018-11-06T12:07:48.739Z,170
2018-11-06T12:08:58.568Z,165
2018-11-06T12:10:09.932Z,165
2018-11-06T12:11:20.133Z,165
2018-11-06T12:12:30.217Z,165
2018-11-06T12:13:40.347Z,165
2018-11-06T12:14:50.435Z,165
2018-11-06T12:16:00.754Z,165
2018-11-06T12:17:10.649Z,165
2018-11-06T12:18:21.179Z,165
2018-11-06T12:19:31.339Z,165
2018-11-06T12:20:41.276Z,160
2018-11-06T12:21:51.140Z,160
2018-11-06T12:23:01.010Z,160
2018-11-06T12:24:11.573Z,165
2018-11-06T12:25:23.664Z,160
2018-11-06T12:26:33.772Z,160
2018-11-06T12:27:43.597Z,155
2018-11-06T12:28:53.480Z,160
2018-11-06T12:30:03.816Z,160
2018-11-06T12:31:13.854Z,155
2018-11-06T12:32:23.779Z,155
2018-11-06T12:33:33.639Z,155
2018-11-06T12:34:43.760Z,155
2018-11-06T12:35:53.360Z,155
2018-11-06T12:37:05.755Z,155
2018-11-06T12:38:15.973Z,155
2018-11-06T12:39:25.792Z,155
2018-11-06T12:40:35.676Z,150
2018-11-06T12:41:45.488Z,155
2018-11-06T12:42:55.561Z,150
2018-11-06T12:44:05.402Z,150
2018-11-06T12:45:15.197Z,145
2018-11-06T12:46:25.547Z,150
2018-11-06T12:47:35.627Z,145
2018-11-06T12:48:45.725Z,145
2018-11-06T12:49:55.801Z,145
2018-11-06T12:51:05.361Z,145
2018-11-06T12:52:15.583Z,145
2018-11-06T12:53:25.392Z,145
2018-11-06T12:54:35.200Z,145
2018-11-06T12:55:45.277Z,140
2018-11-06T12:56:55.100Z,140
2018-11-06T12:58:04.964Z,140
2018-11-06T12:59:14.792Z,140
2018-11-06T13:00:24.602Z,140
2018-11-06T13:01:34.424Z,135
2018-11-06T13:02:44.271Z,135
2018-11-06T13:03:54.338Z,135
2018-11-06T13:05:04.170Z,135
2018-11-06T13:06:13.996Z,135
2018-11-06T13:07:24.413Z,135
2018-11-06T13:08:34.501Z,130
2018-11-06T13:09:44.727Z,130
2018-11-06T13:10:54.301Z,130
2018-11-06T13:12:04.128Z,130
2018-11-06T13:13:13.973Z,130
2018-11-06T13:14:24.104Z,125
2018-11-06T13:15:34.185Z,125
2018-11-06T13:16:44.546Z,125
2018-11-06T13:17:54.648Z,125
2018-11-06T13:19:04.819Z,125
2018-11-06T13:20:14.645Z,120
2018-11-06T13:21:24.482Z,120
2018-11-06T13:22:34.549Z,120
2018-11-06T13:23:44.367Z,115
2018-11-06T13:24:54.409Z,115
2018-11-06T13:26:04.166Z,115
2018-11-06T13:27:14.381Z,115
2018-11-06T13:28:24.274Z,110
2018-11-06T13:29:34.634Z,110
2018-11-06T13:30:44.878Z,110
2018-11-06T13:31:53.936Z,110
2018-11-06T13:33:03.519Z,110
2018-11-06T13:34:13.663Z,105
2018-11-06T13:35:23.483Z,105
2018-11-06T13:36:33.037Z,105
2018-11-06T13:37:42.356Z,105
2018-11-06T13:38:52.684Z,100
2018-11-06T13:40:02.676Z,100
2018-11-06T13:41:12.751Z,100
2018-11-06T13:42:23.061Z,100
2018-11-06T13:43:34.052Z,100
2018-11-06T13:44:46.918Z,95
2018-11-06T13:45:57.580Z,95
2018-11-06T13:47:07.704Z,95
2018-11-06T13:48:17.559Z,95
2018-11-06T13:49:27.419Z,95
2018-11-06T13:50:37.097Z,95
2018-11-06T13:51:46.917Z,95
2018-11-06T13:52:56.745Z,95
2018-11-06T13:54:06.832Z,90
2018-11-06T13:55:16.734Z,90
2018-11-06T13:56:26.584Z,90
2018-11-06T13:57:36.952Z,90
2018-11-06T13:58:47.051Z,85
2018-11-06T13:59:57.745Z,90
2018-11-06T14:01:07.571Z,85
2018-11-06T14:02:17.437Z,85
2018-11-06T14:03:27.565Z,85
2018-11-06T14:04:37.902Z,80
2018-11-06T14:05:47.234Z,80
2018-11-06T14:06:56.792Z,80
2018-11-06T14:08:06.630Z,80
2018-11-06T14:09:16.649Z,75
2018-11-06T14:10:26.760Z,75
2018-11-06T14:11:36.960Z,75
2018-11-06T14:12:46.848Z,75
2018-11-06T14:13:56.952Z,70
2018-11-06T14:15:06.783Z,70
2018-11-06T14:16:16.594Z,70
2018-11-06T14:17:25.884Z,70
2018-11-06T14:26:05.607Z,60
2018-11-06T14:27:16.506Z,55
2018-11-06T14:28:26.610Z,55
2018-11-06T14:29:36.709Z,55
2018-11-06T14:30:46.526Z,55
2018-11-06T14:31:58.081Z,50
2018-11-06T14:33:08.528Z,50
2018-11-06T14:34:18.371Z,50
2018-11-06T14:35:28.181Z,50
2018-11-06T14:36:38.279Z,50
2018-11-06T14:37:47.841Z,50
2018-11-06T14:38:57.690Z,45
2018-11-06T14:40:07.513Z,45
2018-11-06T14:41:17.355Z,45
2018-11-06T14:42:27.658Z,40
2018-11-06T14:43:37.821Z,40
2018-11-06T14:44:47.905Z,40
2018-11-06T14:45:57.454Z,40
2018-11-06T14:47:07.537Z,35
2018-11-06T14:48:18.169Z,35
2018-11-06T14:49:28.304Z,35
2018-11-06T14:50:37.914Z,30
2018-11-06T14:51:47.304Z,30
2018-11-06T14:52:57.413Z,30
2018-11-06T14:54:07.528Z,30
2018-11-06T14:55:17.078Z,25
2018-11-06T14:56:26.389Z,25
2018-11-06T14:57:36.541Z,25
2018-11-06T14:58:46.357Z,25
2018-11-06T14:59:56.184Z,25
2018-11-06T15:01:06.012Z,20
2018-11-06T15:02:15.571Z,20
2018-11-06T15:03:24.868Z,20
2018-11-06T15:04:34.694Z,20
2018-11-06T15:05:45.266Z,15
2018-11-06T15:06:55.397Z,15
2018-11-06T15:08:06.682Z,15
2018-11-06T15:09:16.551Z,15
2018-11-06T15:10:26.403Z,10
2018-11-06T15:11:35.957Z,10
2018-11-06T15:12:46.223Z,10
2018-11-06T15:13:56.386Z,10
2018-11-06T15:15:06.257Z,10
2018-11-06T15:16:16.381Z,10
2018-11-06T15:17:25.673Z,5
2018-11-06T15:18:34.964Z,5
2018-11-06T15:19:44.517Z,5
2018-11-06T15:20:55.108Z,5
2018-11-06T15:22:05.212Z,5
2018-11-06T15:23:14.775Z,5
2018-11-06T15:24:24.846Z,5
2018-11-06T15:25:34.935Z,5
2018-11-06T15:26:44.250Z,0
2018-11-06T15:27:54.088Z,0
2018-11-06T15:29:04.202Z,0
2018-11-06T15:30:14.030Z,0
2018-11-06T15:31:24.241Z,0
2018-11-06T15:32:34.735Z,0
2018-11-06T15:33:44.832Z,0
2018-11-06T15:34:54.931Z,0
2018-11-06T15:36:05.273Z,0
2018-11-06T15:37:15.153Z,0
2018-11-06T15:38:24.454Z,0
2018-11-06T15:39:33.586Z,0
2018-11-06T15:40:43.473Z,0
2018-11-06T15:41:53.731Z,0
2018-11-06T15:43:03.483Z,0
2018-11-06T15:44:13.029Z,0
2018-11-06T15:45:23.115Z,0
2018-11-06T15:46:33.601Z,0
2018-11-06T15:47:43.443Z,0
2018-11-06T15:48:53.882Z,0
2018-11-06T15:50:03.796Z,0
2018-11-06T15:51:13.599Z,0
2018-11-06T15:52:23.418Z,0
2018-11-06T15:53:32.990Z,0
2018-11-06T15:54:43.735Z,0
2018-11-06T15:55:53.853Z,0
2018-11-06T15:57:04.300Z,0
2018-11-06T15:58:14.427Z,0
2018-11-06T15:59:24.499Z,0
2018-11-06T16:00:34.744Z,0
2018-11-06T16:01:45.045Z,0
2018-11-06T16:02:54.547Z,0
2018-11-06T16:04:04.644Z,0
2018-11-06T16:05:14.740Z,0
2018-11-06T16:06:24.574Z,0
2018-11-06T16:07:34.740Z,0
2018-11-06T16:08:44.603Z,0
2018-11-06T16:09:54.950Z,0
2018-11-06T16:11:05.120Z,0
2018-11-06T16:12:15.295Z,0
2018-11-06T16:13:25.394Z,0
2018-11-06T16:14:35.474Z,0
2018-11-06T16:15:45.578Z,0
2018-11-06T16:16:55.394Z,0
2018-11-06T16:18:05.486Z,0
2018-11-06T16:19:15.291Z,0
2018-11-06T16:20:25.091Z,0
2018-11-06T16:21:35.185Z,0
2018-11-06T16:22:45.545Z,0
2018-11-06T16:23:55.449Z,0
2018-11-06T16:25:05.519Z,0
2018-11-06T16:26:15.757Z,0
2018-11-06T16:27:25.694Z,0
2018-11-06T16:28:35.801Z,0
2018-11-06T16:29:46.185Z,0
2018-11-06T16:30:55.946Z,0
2018-11-06T16:32:06.078Z,0
2018-11-06T16:33:15.693Z,0
2018-11-06T16:34:25.787Z,0
2018-11-06T16:35:35.768Z,0
2018-11-06T16:36:45.886Z,0
2018-11-06T16:37:56.007Z,0
2018-11-06T16:39:06.127Z,0
2018-11-06T16:40:16.223Z,0
2018-11-06T16:41:26.498Z,0
2018-11-06T16:42:36.681Z,0
2018-11-06T16:43:46.777Z,0
2018-11-06T16:44:56.358Z,0
2018-11-06T16:46:06.522Z,0
2018-11-06T16:47:16.624Z,0
2018-11-06T16:48:27.136Z,0
2018-11-06T16:49:37.052Z,0
2018-11-06T16:50:47.222Z,0
2018-11-06T16:51:57.283Z,0
2018-11-06T16:53:06.850Z,0
2018-11-06T16:54:16.403Z,0
2018-11-06T16:55:26.019Z,0
2018-11-06T16:56:35.856Z,0
2018-11-06T16:57:45.938Z,0
2018-11-06T16:58:55.849Z,0
2018-11-06T17:00:06.349Z,0
2018-11-06T17:01:18.425Z,0
2018-11-06T17:02:28.573Z,0
2018-11-06T17:03:38.433Z,0
2018-11-06T17:05:02.683Z,0
2018-11-06T17:06:12.804Z,0
2018-11-06T17:07:21.850Z,0
2018-11-06T17:08:31.759Z,0
2018-11-06T17:09:41.857Z,0
2018-11-06T17:10:52.008Z,0
2018-11-06T17:12:02.134Z,0
2018-11-06T17:13:11.968Z,0
2018-11-06T17:14:22.421Z,0
2018-11-06T17:15:31.983Z,0
2018-11-06T17:16:41.543Z,0
2018-11-06T17:17:51.410Z,0
2018-11-06T17:19:01.247Z,0
2018-11-06T17:20:11.643Z,0
2018-11-06T17:21:21.491Z,0
2018-11-06T17:22:31.098Z,0